sensor_id;sensor_type;location;lat;lon;timestamp;temperature;humidity
6540;DHT22;50344;51.142;16.892;2023-11-22T00:01:27;21.50;53.40
6540;DHT22;50344;51.142;16.892;2023-11-22T00:04:13;21.90;53.80
6540;DHT22;50344;51.142;16.892;2023-11-22T00:06:39;21.50;52.60
6540;DHT22;50344;51.142;16.892;2023-11-22T00:09:04;21.60;53.10
6540;DHT22;50344;51.142;16.892;2023-11-22T00:11:30;21.50;53.10
6540;DHT22;50344;51.142;16.892;2023-11-22T00:13:55;21.50;53.20
6540;DHT22;50344;51.142;16.892;2023-11-22T00:16:21;21.40;53.20
6540;DHT22;50344;51.142;16.892;2023-11-22T00:18:47;21.40;53.20
6540;DHT22;50344;51.142;16.892;2023-11-22T00:21:12;21.40;53.10
6540;DHT22;50344;51.142;16.892;2023-11-22T00:23:38;21.50;53.20
6540;DHT22;50344;51.142;16.892;2023-11-22T00:26:05;21.50;53.10
6540;DHT22;50344;51.142;16.892;2023-11-22T00:28:31;21.60;52.40
6540;DHT22;50344;51.142;16.892;2023-11-22T00:30:57;21.70;53.10
6540;DHT22;50344;51.142;16.892;2023-11-22T00:33:23;21.50;53.00
6540;DHT22;50344;51.142;16.892;2023-11-22T00:35:50;21.50;53.20
6540;DHT22;50344;51.142;16.892;2023-11-22T00:38:15;21.40;52.20
6540;DHT22;50344;51.142;16.892;2023-11-22T00:40:41;21.50;53.10
6540;DHT22;50344;51.142;16.892;2023-11-22T00:43:07;21.40;53.00
6540;DHT22;50344;51.142;16.892;2023-11-22T00:45:33;21.40;53.00
6540;DHT22;50344;51.142;16.892;2023-11-22T00:47:59;21.50;53.10
6540;DHT22;50344;51.142;16.892;2023-11-22T00:50:24;21.40;53.00
6540;DHT22;50344;51.142;16.892;2023-11-22T00:52:50;21.50;52.90
6540;DHT22;50344;51.142;16.892;2023-11-22T00:55:15;21.50;52.90
6540;DHT22;50344;51.142;16.892;2023-11-22T00:57:41;21.50;52.80
6540;DHT22;50344;51.142;16.892;2023-11-22T01:00:07;21.40;52.60
6540;DHT22;50344;51.142;16.892;2023-11-22T01:02:36;21.40;52.40
6540;DHT22;50344;51.142;16.892;2023-11-22T01:05:07;21.50;52.10
6540;DHT22;50344;51.142;16.892;2023-11-22T01:07:40;21.50;51.80
6540;DHT22;50344;51.142;16.892;2023-11-22T01:10:06;21.50;52.60
6540;DHT22;50344;51.142;16.892;2023-11-22T01:12:42;21.50;52.40
6540;DHT22;50344;51.142;16.892;2023-11-22T01:15:08;21.30;51.70
6540;DHT22;50344;51.142;16.892;2023-11-22T01:17:34;21.40;52.20
6540;DHT22;50344;51.142;16.892;2023-11-22T01:20:00;21.50;52.50
6540;DHT22;50344;51.142;16.892;2023-11-22T01:22:25;21.50;52.40
6540;DHT22;50344;51.142;16.892;2023-11-22T01:24:51;21.40;52.20
6540;DHT22;50344;51.142;16.892;2023-11-22T01:27:16;21.40;52.20
6540;DHT22;50344;51.142;16.892;2023-11-22T01:29:42;21.40;52.10
6540;DHT22;50344;51.142;16.892;2023-11-22T01:32:07;21.40;52.00
6540;DHT22;50344;51.142;16.892;2023-11-22T01:34:36;21.40;51.90
6540;DHT22;50344;51.142;16.892;2023-11-22T01:37:02;21.40;51.90
6540;DHT22;50344;51.142;16.892;2023-11-22T01:39:28;21.40;52.00
6540;DHT22;50344;51.142;16.892;2023-11-22T01:41:53;21.50;52.10
6540;DHT22;50344;51.142;16.892;2023-11-22T01:44:19;21.40;52.00
6540;DHT22;50344;51.142;16.892;2023-11-22T01:46:45;21.40;52.00
6540;DHT22;50344;51.142;16.892;2023-11-22T01:49:11;21.50;52.00
6540;DHT22;50344;51.142;16.892;2023-11-22T01:51:40;21.50;51.90
6540;DHT22;50344;51.142;16.892;2023-11-22T01:54:06;21.40;51.70
6540;DHT22;50344;51.142;16.892;2023-11-22T01:56:32;21.40;51.90
6540;DHT22;50344;51.142;16.892;2023-11-22T01:58:59;21.40;51.80
6540;DHT22;50344;51.142;16.892;2023-11-22T02:01:26;21.40;51.90
6540;DHT22;50344;51.142;16.892;2023-11-22T02:03:51;21.40;51.90
6540;DHT22;50344;51.142;16.892;2023-11-22T02:06:18;21.40;51.90
6540;DHT22;50344;51.142;16.892;2023-11-22T02:08:44;21.40;51.80
6540;DHT22;50344;51.142;16.892;2023-11-22T02:11:10;21.40;51.80
6540;DHT22;50344;51.142;16.892;2023-11-22T02:13:35;21.40;51.80
6540;DHT22;50344;51.142;16.892;2023-11-22T02:16:02;21.40;51.90
6540;DHT22;50344;51.142;16.892;2023-11-22T02:18:28;21.40;51.80
6540;DHT22;50344;51.142;16.892;2023-11-22T02:20:53;21.40;51.80
6540;DHT22;50344;51.142;16.892;2023-11-22T02:23:19;21.40;51.90
6540;DHT22;50344;51.142;16.892;2023-11-22T02:25:45;21.40;51.80
6540;DHT22;50344;51.142;16.892;2023-11-22T02:28:11;21.60;52.50
6540;DHT22;50344;51.142;16.892;2023-11-22T02:30:37;22.50;53.00
6540;DHT22;50344;51.142;16.892;2023-11-22T02:33:03;21.60;53.00
6540;DHT22;50344;51.142;16.892;2023-11-22T02:35:30;21.60;52.70
6540;DHT22;50344;51.142;16.892;2023-11-22T02:37:57;21.80;52.60
6540;DHT22;50344;51.142;16.892;2023-11-22T02:40:23;22.40;53.10
6540;DHT22;50344;51.142;16.892;2023-11-22T02:42:50;21.50;52.70
6540;DHT22;50344;51.142;16.892;2023-11-22T02:45:16;21.60;52.40
6540;DHT22;50344;51.142;16.892;2023-11-22T02:47:43;21.60;52.50
6540;DHT22;50344;51.142;16.892;2023-11-22T02:50:10;21.30;52.20
6540;DHT22;50344;51.142;16.892;2023-11-22T02:52:36;21.40;52.50
6540;DHT22;50344;51.142;16.892;2023-11-22T02:55:03;21.40;52.30
6540;DHT22;50344;51.142;16.892;2023-11-22T02:57:30;21.40;51.90
6540;DHT22;50344;51.142;16.892;2023-11-22T02:59:56;21.70;52.50
6540;DHT22;50344;51.142;16.892;2023-11-22T03:02:22;21.30;51.70
6540;DHT22;50344;51.142;16.892;2023-11-22T03:04:47;21.30;51.80
6540;DHT22;50344;51.142;16.892;2023-11-22T03:07:13;21.30;51.70
6540;DHT22;50344;51.142;16.892;2023-11-22T03:09:39;21.30;51.80
6540;DHT22;50344;51.142;16.892;2023-11-22T03:12:06;21.30;51.70
6540;DHT22;50344;51.142;16.892;2023-11-22T03:14:34;21.30;51.80
6540;DHT22;50344;51.142;16.892;2023-11-22T03:17:00;21.30;51.80
6540;DHT22;50344;51.142;16.892;2023-11-22T03:19:26;21.40;51.80
6540;DHT22;50344;51.142;16.892;2023-11-22T03:24:27;21.30;51.60
6540;DHT22;50344;51.142;16.892;2023-11-22T03:29:28;21.40;51.60
6540;DHT22;50344;51.142;16.892;2023-11-22T03:31:55;21.40;52.30
6540;DHT22;50344;51.142;16.892;2023-11-22T03:34:20;21.40;52.00
6540;DHT22;50344;51.142;16.892;2023-11-22T03:36:46;21.40;51.90
6540;DHT22;50344;51.142;16.892;2023-11-22T03:39:12;21.30;51.80
6540;DHT22;50344;51.142;16.892;2023-11-22T03:41:39;21.50;52.50
6540;DHT22;50344;51.142;16.892;2023-11-22T03:44:05;21.30;51.70
6540;DHT22;50344;51.142;16.892;2023-11-22T03:46:37;21.30;51.60
6540;DHT22;50344;51.142;16.892;2023-11-22T03:49:03;21.30;51.00
6540;DHT22;50344;51.142;16.892;2023-11-22T03:51:29;21.70;52.30
6540;DHT22;50344;51.142;16.892;2023-11-22T03:53:54;22.20;52.60
6540;DHT22;50344;51.142;16.892;2023-11-22T03:56:20;21.30;51.70
6540;DHT22;50344;51.142;16.892;2023-11-22T03:58:46;21.30;51.20
6540;DHT22;50344;51.142;16.892;2023-11-22T04:01:12;21.30;51.60
6540;DHT22;50344;51.142;16.892;2023-11-22T04:03:38;21.30;51.60
6540;DHT22;50344;51.142;16.892;2023-11-22T04:06:03;21.30;51.60
6540;DHT22;50344;51.142;16.892;2023-11-22T04:08:29;21.30;51.50
6540;DHT22;50344;51.142;16.892;2023-11-22T04:10:54;21.30;51.60
6540;DHT22;50344;51.142;16.892;2023-11-22T04:18:30;21.40;50.90
6540;DHT22;50344;51.142;16.892;2023-11-22T04:20:57;22.60;53.50
6540;DHT22;50344;51.142;16.892;2023-11-22T04:23:24;20.90;51.90
6540;DHT22;50344;51.142;16.892;2023-11-22T04:25:50;21.40;52.20
6540;DHT22;50344;51.142;16.892;2023-11-22T04:28:15;21.30;51.80
6540;DHT22;50344;51.142;16.892;2023-11-22T04:30:42;20.60;51.60
6540;DHT22;50344;51.142;16.892;2023-11-22T04:33:07;21.40;51.70
6540;DHT22;50344;51.142;16.892;2023-11-22T04:35:33;21.30;51.60
6540;DHT22;50344;51.142;16.892;2023-11-22T04:38:04;21.20;51.30
6540;DHT22;50344;51.142;16.892;2023-11-22T04:40:29;21.20;51.00
6540;DHT22;50344;51.142;16.892;2023-11-22T04:42:55;21.20;51.30
6540;DHT22;50344;51.142;16.892;2023-11-22T04:45:21;21.20;51.40
6540;DHT22;50344;51.142;16.892;2023-11-22T04:47:46;21.20;50.70
6540;DHT22;50344;51.142;16.892;2023-11-22T04:50:12;21.20;51.30
6540;DHT22;50344;51.142;16.892;2023-11-22T04:52:37;21.20;51.20
6540;DHT22;50344;51.142;16.892;2023-11-22T04:55:03;21.20;51.20
6540;DHT22;50344;51.142;16.892;2023-11-22T04:57:29;21.20;51.10
6540;DHT22;50344;51.142;16.892;2023-11-22T04:59:55;21.20;50.10
6540;DHT22;50344;51.142;16.892;2023-11-22T05:02:20;21.20;50.90
6540;DHT22;50344;51.142;16.892;2023-11-22T05:04:46;21.20;50.50
6540;DHT22;50344;51.142;16.892;2023-11-22T05:07:14;21.30;51.20
6540;DHT22;50344;51.142;16.892;2023-11-22T05:18:40;21.20;50.30
6540;DHT22;50344;51.142;16.892;2023-11-22T05:21:05;21.20;50.40
6540;DHT22;50344;51.142;16.892;2023-11-22T05:23:31;21.20;50.90
6540;DHT22;50344;51.142;16.892;2023-11-22T05:25:57;21.20;51.00
6540;DHT22;50344;51.142;16.892;2023-11-22T05:28:25;21.20;51.10
6540;DHT22;50344;51.142;16.892;2023-11-22T05:30:50;21.20;51.00
6540;DHT22;50344;51.142;16.892;2023-11-22T05:33:16;21.20;50.60
6540;DHT22;50344;51.142;16.892;2023-11-22T05:35:41;21.20;51.10
6540;DHT22;50344;51.142;16.892;2023-11-22T05:38:07;21.30;51.50
6540;DHT22;50344;51.142;16.892;2023-11-22T05:40:35;21.20;50.80
6540;DHT22;50344;51.142;16.892;2023-11-22T05:43:00;21.20;51.00
6540;DHT22;50344;51.142;16.892;2023-11-22T05:45:26;21.30;50.90
6540;DHT22;50344;51.142;16.892;2023-11-22T05:47:52;21.20;50.70
6540;DHT22;50344;51.142;16.892;2023-11-22T05:50:18;21.20;51.20
6540;DHT22;50344;51.142;16.892;2023-11-22T05:52:43;21.20;50.80
6540;DHT22;50344;51.142;16.892;2023-11-22T05:55:10;21.20;51.00
6540;DHT22;50344;51.142;16.892;2023-11-22T05:57:40;21.30;50.30
6540;DHT22;50344;51.142;16.892;2023-11-22T06:00:06;21.30;51.20
6540;DHT22;50344;51.142;16.892;2023-11-22T06:02:31;21.30;50.90
6540;DHT22;50344;51.142;16.892;2023-11-22T06:04:57;21.30;51.40
6540;DHT22;50344;51.142;16.892;2023-11-22T06:07:23;21.20;51.30
6540;DHT22;50344;51.142;16.892;2023-11-22T06:09:49;21.30;50.40
6540;DHT22;50344;51.142;16.892;2023-11-22T06:12:16;21.10;51.20
6540;DHT22;50344;51.142;16.892;2023-11-22T06:14:41;21.30;50.60
6540;DHT22;50344;51.142;16.892;2023-11-22T06:17:07;21.30;51.40
6540;DHT22;50344;51.142;16.892;2023-11-22T06:19:33;21.40;51.60
6540;DHT22;50344;51.142;16.892;2023-11-22T06:21:59;21.30;51.60
6540;DHT22;50344;51.142;16.892;2023-11-22T06:24:27;21.40;51.50
6540;DHT22;50344;51.142;16.892;2023-11-22T06:26:52;21.40;51.30
6540;DHT22;50344;51.142;16.892;2023-11-22T06:29:18;21.30;51.30
6540;DHT22;50344;51.142;16.892;2023-11-22T06:31:43;21.30;51.30
6540;DHT22;50344;51.142;16.892;2023-11-22T06:37:20;21.50;50.20
6540;DHT22;50344;51.142;16.892;2023-11-22T06:39:46;21.30;49.90
6540;DHT22;50344;51.142;16.892;2023-11-22T06:42:12;21.30;51.00
6540;DHT22;50344;51.142;16.892;2023-11-22T06:44:38;21.30;51.20
6540;DHT22;50344;51.142;16.892;2023-11-22T06:47:05;21.30;51.20
6540;DHT22;50344;51.142;16.892;2023-11-22T06:49:34;21.30;51.10
6540;DHT22;50344;51.142;16.892;2023-11-22T06:51:59;21.30;51.10
6540;DHT22;50344;51.142;16.892;2023-11-22T06:54:25;22.20;52.20
6540;DHT22;50344;51.142;16.892;2023-11-22T06:56:50;20.80;50.70
6540;DHT22;50344;51.142;16.892;2023-11-22T06:59:16;21.30;50.90
6540;DHT22;50344;51.142;16.892;2023-11-22T07:01:42;21.30;50.90
6540;DHT22;50344;51.142;16.892;2023-11-22T07:04:07;21.30;50.90
6540;DHT22;50344;51.142;16.892;2023-11-22T07:06:33;21.20;50.70
6540;DHT22;50344;51.142;16.892;2023-11-22T07:08:58;21.30;50.70
6540;DHT22;50344;51.142;16.892;2023-11-22T07:11:24;21.30;50.60
6540;DHT22;50344;51.142;16.892;2023-11-22T07:13:50;21.70;51.00
6540;DHT22;50344;51.142;16.892;2023-11-22T07:16:17;21.30;50.60
6540;DHT22;50344;51.142;16.892;2023-11-22T07:18:44;21.20;50.60
6540;DHT22;50344;51.142;16.892;2023-11-22T07:21:10;21.20;50.60
6540;DHT22;50344;51.142;16.892;2023-11-22T07:23:37;21.20;50.60
6540;DHT22;50344;51.142;16.892;2023-11-22T07:26:03;21.20;50.60
6540;DHT22;50344;51.142;16.892;2023-11-22T07:28:28;21.20;50.60
6540;DHT22;50344;51.142;16.892;2023-11-22T07:30:54;21.20;50.70
6540;DHT22;50344;51.142;16.892;2023-11-22T07:33:21;21.20;50.60
6540;DHT22;50344;51.142;16.892;2023-11-22T07:35:46;21.20;50.60
6540;DHT22;50344;51.142;16.892;2023-11-22T07:38:12;21.20;50.50
6540;DHT22;50344;51.142;16.892;2023-11-22T07:40:37;21.20;50.40
6540;DHT22;50344;51.142;16.892;2023-11-22T07:43:03;21.20;50.40
6540;DHT22;50344;51.142;16.892;2023-11-22T07:45:30;21.20;50.40
6540;DHT22;50344;51.142;16.892;2023-11-22T07:47:57;21.20;50.30
6540;DHT22;50344;51.142;16.892;2023-11-22T07:50:25;21.20;50.30
6540;DHT22;50344;51.142;16.892;2023-11-22T07:52:51;21.20;50.20
6540;DHT22;50344;51.142;16.892;2023-11-22T07:55:16;21.20;50.00
6540;DHT22;50344;51.142;16.892;2023-11-22T07:57:43;21.20;50.00
6540;DHT22;50344;51.142;16.892;2023-11-22T08:00:09;21.20;49.90
6540;DHT22;50344;51.142;16.892;2023-11-22T08:02:36;21.20;49.70
6540;DHT22;50344;51.142;16.892;2023-11-22T08:05:04;21.50;50.70
6540;DHT22;50344;51.142;16.892;2023-11-22T08:07:36;21.50;50.50
6540;DHT22;50344;51.142;16.892;2023-11-22T08:10:07;19.60;47.70
6540;DHT22;50344;51.142;16.892;2023-11-22T08:12:42;21.20;49.60
6540;DHT22;50344;51.142;16.892;2023-11-22T08:15:10;22.30;51.10
6540;DHT22;50344;51.142;16.892;2023-11-22T08:25:23;21.30;49.10
6540;DHT22;50344;51.142;16.892;2023-11-22T08:27:49;21.50;50.50
6540;DHT22;50344;51.142;16.892;2023-11-22T08:30:15;22.00;51.40
6540;DHT22;50344;51.142;16.892;2023-11-22T08:32:44;21.20;49.60
6540;DHT22;50344;51.142;16.892;2023-11-22T08:35:12;21.60;49.20
6540;DHT22;50344;51.142;16.892;2023-11-22T08:37:39;21.40;50.30
6540;DHT22;50344;51.142;16.892;2023-11-22T08:40:06;21.30;50.00
6540;DHT22;50344;51.142;16.892;2023-11-22T08:42:32;21.60;49.90
6540;DHT22;50344;51.142;16.892;2023-11-22T08:44:58;21.00;49.70
6540;DHT22;50344;51.142;16.892;2023-11-22T08:50:09;21.20;48.80
6540;DHT22;50344;51.142;16.892;2023-11-22T08:52:38;22.30;51.00
6540;DHT22;50344;51.142;16.892;2023-11-22T08:55:05;20.60;49.00
6540;DHT22;50344;51.142;16.892;2023-11-22T08:57:38;22.10;50.60
6540;DHT22;50344;51.142;16.892;2023-11-22T09:00:04;21.60;48.90
6540;DHT22;50344;51.142;16.892;2023-11-22T09:05:10;21.30;48.70
6540;DHT22;50344;51.142;16.892;2023-11-22T09:07:37;21.20;50.00
6540;DHT22;50344;51.142;16.892;2023-11-22T09:10:05;21.30;50.10
6540;DHT22;50344;51.142;16.892;2023-11-22T09:12:35;21.40;49.40
6540;DHT22;50344;51.142;16.892;2023-11-22T09:15:02;21.70;50.00
6540;DHT22;50344;51.142;16.892;2023-11-22T09:17:29;22.10;50.80
6540;DHT22;50344;51.142;16.892;2023-11-22T09:19:55;21.40;49.50
6540;DHT22;50344;51.142;16.892;2023-11-22T09:22:21;21.90;50.40
6540;DHT22;50344;51.142;16.892;2023-11-22T09:24:46;21.50;49.60
6540;DHT22;50344;51.142;16.892;2023-11-22T09:27:12;22.00;50.80
6540;DHT22;50344;51.142;16.892;2023-11-22T09:29:41;21.40;49.80
6540;DHT22;50344;51.142;16.892;2023-11-22T09:32:07;21.20;49.00
6540;DHT22;50344;51.142;16.892;2023-11-22T09:34:33;21.20;49.20
6540;DHT22;50344;51.142;16.892;2023-11-22T09:37:02;21.20;48.90
6540;DHT22;50344;51.142;16.892;2023-11-22T09:39:28;21.20;48.90
6540;DHT22;50344;51.142;16.892;2023-11-22T09:41:55;21.20;48.80
6540;DHT22;50344;51.142;16.892;2023-11-22T09:44:21;21.30;48.90
6540;DHT22;50344;51.142;16.892;2023-11-22T09:46:47;21.30;48.70
6540;DHT22;50344;51.142;16.892;2023-11-22T09:49:14;21.40;48.60
6540;DHT22;50344;51.142;16.892;2023-11-22T09:54:20;21.50;48.00
6540;DHT22;50344;51.142;16.892;2023-11-22T09:56:45;21.70;48.80
6540;DHT22;50344;51.142;16.892;2023-11-22T09:59:15;21.60;49.20
6540;DHT22;50344;51.142;16.892;2023-11-22T10:01:42;21.70;48.60
6540;DHT22;50344;51.142;16.892;2023-11-22T10:04:08;21.70;49.00
6540;DHT22;50344;51.142;16.892;2023-11-22T10:06:33;21.40;48.90
6540;DHT22;50344;51.142;16.892;2023-11-22T10:09:01;21.50;48.30
6540;DHT22;50344;51.142;16.892;2023-11-22T10:11:31;21.50;48.30
6540;DHT22;50344;51.142;16.892;2023-11-22T10:13:56;21.50;47.90
6540;DHT22;50344;51.142;16.892;2023-11-22T10:16:22;21.60;47.80
6540;DHT22;50344;51.142;16.892;2023-11-22T10:18:48;21.60;47.90
6540;DHT22;50344;51.142;16.892;2023-11-22T10:21:21;21.60;47.80
6540;DHT22;50344;51.142;16.892;2023-11-22T10:23:57;21.70;47.30
6540;DHT22;50344;51.142;16.892;2023-11-22T10:26:25;22.00;48.20
6540;DHT22;50344;51.142;16.892;2023-11-22T10:28:52;22.60;48.60
6540;DHT22;50344;51.142;16.892;2023-11-22T10:31:18;22.90;48.80
6540;DHT22;50344;51.142;16.892;2023-11-22T10:33:45;22.00;47.90
6540;DHT22;50344;51.142;16.892;2023-11-22T10:36:11;21.70;47.50
6540;DHT22;50344;51.142;16.892;2023-11-22T10:38:37;21.70;47.60
6540;DHT22;50344;51.142;16.892;2023-11-22T10:41:03;21.70;47.80
6540;DHT22;50344;51.142;16.892;2023-11-22T10:43:29;21.70;47.90
6540;DHT22;50344;51.142;16.892;2023-11-22T10:45:57;21.70;47.90
6540;DHT22;50344;51.142;16.892;2023-11-22T10:48:23;21.70;47.90
6540;DHT22;50344;51.142;16.892;2023-11-22T10:50:50;21.70;48.00
6540;DHT22;50344;51.142;16.892;2023-11-22T10:53:20;21.70;47.60
6540;DHT22;50344;51.142;16.892;2023-11-22T10:55:47;21.70;48.60
6540;DHT22;50344;51.142;16.892;2023-11-22T10:58:13;21.70;47.70
6540;DHT22;50344;51.142;16.892;2023-11-22T11:00:40;21.70;47.80
6540;DHT22;50344;51.142;16.892;2023-11-22T11:03:19;21.80;47.60
6540;DHT22;50344;51.142;16.892;2023-11-22T11:05:57;21.90;47.70
6540;DHT22;50344;51.142;16.892;2023-11-22T11:08:25;21.80;47.30
6540;DHT22;50344;51.142;16.892;2023-11-22T11:10:52;21.90;47.30
6540;DHT22;50344;51.142;16.892;2023-11-22T11:13:18;21.90;47.30
6540;DHT22;50344;51.142;16.892;2023-11-22T11:15:44;22.00;46.70
6540;DHT22;50344;51.142;16.892;2023-11-22T11:18:12;22.40;46.10
6540;DHT22;50344;51.142;16.892;2023-11-22T11:20:44;22.70;49.80
6540;DHT22;50344;51.142;16.892;2023-11-22T11:23:19;22.90;54.90
6540;DHT22;50344;51.142;16.892;2023-11-22T11:25:47;23.20;43.80
6540;DHT22;50344;51.142;16.892;2023-11-22T11:28:13;23.10;43.20
6540;DHT22;50344;51.142;16.892;2023-11-22T11:30:42;23.10;43.40
6540;DHT22;50344;51.142;16.892;2023-11-22T11:33:09;23.10;42.90
6540;DHT22;50344;51.142;16.892;2023-11-22T11:38:12;22.90;42.80
6540;DHT22;50344;51.142;16.892;2023-11-22T11:40:40;22.80;43.40
6540;DHT22;50344;51.142;16.892;2023-11-22T11:43:05;22.70;43.30
6540;DHT22;50344;51.142;16.892;2023-11-22T11:45:35;22.70;43.80
6540;DHT22;50344;51.142;16.892;2023-11-22T11:48:00;22.50;44.00
6540;DHT22;50344;51.142;16.892;2023-11-22T11:50:26;22.50;44.10
6540;DHT22;50344;51.142;16.892;2023-11-22T11:52:52;22.50;44.60
6540;DHT22;50344;51.142;16.892;2023-11-22T11:55:17;22.40;44.30
6540;DHT22;50344;51.142;16.892;2023-11-22T11:57:43;22.30;44.40
6540;DHT22;50344;51.142;16.892;2023-11-22T12:00:12;22.30;44.80
6540;DHT22;50344;51.142;16.892;2023-11-22T12:02:39;22.20;44.20
6540;DHT22;50344;51.142;16.892;2023-11-22T12:05:06;22.20;45.10
6540;DHT22;50344;51.142;16.892;2023-11-22T12:07:37;22.10;44.60
6540;DHT22;50344;51.142;16.892;2023-11-22T12:10:03;22.10;45.00
6540;DHT22;50344;51.142;16.892;2023-11-22T12:12:29;22.10;44.90
6540;DHT22;50344;51.142;16.892;2023-11-22T12:14:55;22.00;45.30
6540;DHT22;50344;51.142;16.892;2023-11-22T12:17:21;22.00;45.40
6540;DHT22;50344;51.142;16.892;2023-11-22T12:19:47;21.90;45.40
6540;DHT22;50344;51.142;16.892;2023-11-22T12:22:14;21.90;45.60
6540;DHT22;50344;51.142;16.892;2023-11-22T12:24:42;21.90;45.60
6540;DHT22;50344;51.142;16.892;2023-11-22T12:27:11;21.80;45.80
6540;DHT22;50344;51.142;16.892;2023-11-22T12:29:37;21.80;45.00
6540;DHT22;50344;51.142;16.892;2023-11-22T12:32:03;21.80;45.80
6540;DHT22;50344;51.142;16.892;2023-11-22T12:34:28;21.80;45.80
6540;DHT22;50344;51.142;16.892;2023-11-22T12:36:55;21.80;46.10
6540;DHT22;50344;51.142;16.892;2023-11-22T12:39:21;21.70;46.70
6540;DHT22;50344;51.142;16.892;2023-11-22T12:41:48;21.70;45.70
6540;DHT22;50344;51.142;16.892;2023-11-22T12:44:16;21.70;46.00
6540;DHT22;50344;51.142;16.892;2023-11-22T12:46:48;21.70;46.10
6540;DHT22;50344;51.142;16.892;2023-11-22T12:49:43;21.70;45.70
6540;DHT22;50344;51.142;16.892;2023-11-22T12:52:08;21.70;46.40
6540;DHT22;50344;51.142;16.892;2023-11-22T12:54:34;21.70;46.30
6540;DHT22;50344;51.142;16.892;2023-11-22T12:57:00;21.70;46.40
6540;DHT22;50344;51.142;16.892;2023-11-22T12:59:26;21.70;46.50
6540;DHT22;50344;51.142;16.892;2023-11-22T13:01:58;21.60;46.00
6540;DHT22;50344;51.142;16.892;2023-11-22T13:04:25;21.70;46.70
6540;DHT22;50344;51.142;16.892;2023-11-22T13:06:51;21.60;46.80
6540;DHT22;50344;51.142;16.892;2023-11-22T13:09:17;21.60;46.70
6540;DHT22;50344;51.142;16.892;2023-11-22T13:11:43;21.60;46.80
6540;DHT22;50344;51.142;16.892;2023-11-22T13:14:09;21.60;46.90
6540;DHT22;50344;51.142;16.892;2023-11-22T13:16:34;21.60;46.80
6540;DHT22;50344;51.142;16.892;2023-11-22T13:19:02;21.60;46.70
6540;DHT22;50344;51.142;16.892;2023-11-22T13:21:27;21.70;46.90
6540;DHT22;50344;51.142;16.892;2023-11-22T13:23:53;21.70;46.70
6540;DHT22;50344;51.142;16.892;2023-11-22T13:26:18;21.60;46.40
6540;DHT22;50344;51.142;16.892;2023-11-22T13:28:44;21.60;46.60
6540;DHT22;50344;51.142;16.892;2023-11-22T13:31:10;21.60;46.60
6540;DHT22;50344;51.142;16.892;2023-11-22T13:33:37;21.60;46.80
6540;DHT22;50344;51.142;16.892;2023-11-22T13:36:04;21.60;46.60
6540;DHT22;50344;51.142;16.892;2023-11-22T13:38:30;21.60;46.30
6540;DHT22;50344;51.142;16.892;2023-11-22T13:40:55;21.60;46.70
6540;DHT22;50344;51.142;16.892;2023-11-22T13:43:21;21.60;46.70
6540;DHT22;50344;51.142;16.892;2023-11-22T13:45:46;21.60;46.30
6540;DHT22;50344;51.142;16.892;2023-11-22T13:48:12;21.60;46.70
6540;DHT22;50344;51.142;16.892;2023-11-22T13:50:38;21.60;46.70
6540;DHT22;50344;51.142;16.892;2023-11-22T13:53:03;21.60;46.70
6540;DHT22;50344;51.142;16.892;2023-11-22T13:55:29;21.60;46.60
6540;DHT22;50344;51.142;16.892;2023-11-22T13:57:56;21.60;46.60
6540;DHT22;50344;51.142;16.892;2023-11-22T14:00:23;21.60;46.80
6540;DHT22;50344;51.142;16.892;2023-11-22T14:02:55;21.60;46.80
6540;DHT22;50344;51.142;16.892;2023-11-22T14:05:29;21.60;46.70
6540;DHT22;50344;51.142;16.892;2023-11-22T14:07:55;21.60;47.00
6540;DHT22;50344;51.142;16.892;2023-11-22T14:10:21;21.60;46.90
6540;DHT22;50344;51.142;16.892;2023-11-22T14:12:50;21.60;47.10
6540;DHT22;50344;51.142;16.892;2023-11-22T14:15:16;21.60;47.10
6540;DHT22;50344;51.142;16.892;2023-11-22T14:17:42;21.40;46.60
6540;DHT22;50344;51.142;16.892;2023-11-22T14:22:35;21.60;45.60
6540;DHT22;50344;51.142;16.892;2023-11-22T14:25:01;21.50;46.10
6540;DHT22;50344;51.142;16.892;2023-11-22T14:27:26;21.50;45.90
6540;DHT22;50344;51.142;16.892;2023-11-22T14:29:54;21.60;46.10
6540;DHT22;50344;51.142;16.892;2023-11-22T14:32:19;21.60;46.30
6540;DHT22;50344;51.142;16.892;2023-11-22T14:34:46;21.50;46.20
6540;DHT22;50344;51.142;16.892;2023-11-22T14:37:12;21.50;46.30
6540;DHT22;50344;51.142;16.892;2023-11-22T14:39:38;21.40;46.70
6540;DHT22;50344;51.142;16.892;2023-11-22T14:44:39;21.60;45.60
6540;DHT22;50344;51.142;16.892;2023-11-22T14:47:05;21.70;47.10
6540;DHT22;50344;51.142;16.892;2023-11-22T14:49:50;21.50;46.20
6540;DHT22;50344;51.142;16.892;2023-11-22T14:54:51;21.60;46.50
6540;DHT22;50344;51.142;16.892;2023-11-22T14:57:17;21.50;47.30
6540;DHT22;50344;51.142;16.892;2023-11-22T14:59:43;21.50;47.20
6540;DHT22;50344;51.142;16.892;2023-11-22T15:02:10;21.10;47.80
6540;DHT22;50344;51.142;16.892;2023-11-22T15:04:40;21.50;48.70
6540;DHT22;50344;51.142;16.892;2023-11-22T15:07:05;21.40;46.90
6540;DHT22;50344;51.142;16.892;2023-11-22T15:09:32;21.40;47.60
6540;DHT22;50344;51.142;16.892;2023-11-22T15:12:00;21.40;47.40
6540;DHT22;50344;51.142;16.892;2023-11-22T15:14:32;21.40;46.70
6540;DHT22;50344;51.142;16.892;2023-11-22T15:16:58;21.40;46.10
6540;DHT22;50344;51.142;16.892;2023-11-22T15:19:26;21.40;46.70
6540;DHT22;50344;51.142;16.892;2023-11-22T15:21:53;21.40;46.80
6540;DHT22;50344;51.142;16.892;2023-11-22T15:24:19;21.40;46.60
6540;DHT22;50344;51.142;16.892;2023-11-22T15:26:44;21.60;48.80
6540;DHT22;50344;51.142;16.892;2023-11-22T15:29:13;21.40;50.70
6540;DHT22;50344;51.142;16.892;2023-11-22T15:31:41;21.30;49.70
6540;DHT22;50344;51.142;16.892;2023-11-22T15:34:06;21.30;48.80
6540;DHT22;50344;51.142;16.892;2023-11-22T15:36:32;21.30;47.90
6540;DHT22;50344;51.142;16.892;2023-11-22T15:38:59;21.30;48.00
6540;DHT22;50344;51.142;16.892;2023-11-22T15:41:26;21.50;50.30
6540;DHT22;50344;51.142;16.892;2023-11-22T15:43:51;21.90;52.10
6540;DHT22;50344;51.142;16.892;2023-11-22T15:46:17;22.00;52.30
6540;DHT22;50344;51.142;16.892;2023-11-22T15:48:44;21.50;51.60
6540;DHT22;50344;51.142;16.892;2023-11-22T15:51:10;21.30;50.70
6540;DHT22;50344;51.142;16.892;2023-11-22T15:53:37;21.30;49.90
6540;DHT22;50344;51.142;16.892;2023-11-22T15:56:03;21.20;49.10
6540;DHT22;50344;51.142;16.892;2023-11-22T15:58:29;21.20;49.20
6540;DHT22;50344;51.142;16.892;2023-11-22T16:00:54;21.30;49.60
6540;DHT22;50344;51.142;16.892;2023-11-22T16:03:21;21.20;49.40
6540;DHT22;50344;51.142;16.892;2023-11-22T16:08:22;21.30;48.90
6540;DHT22;50344;51.142;16.892;2023-11-22T16:10:50;22.10;53.20
6540;DHT22;50344;51.142;16.892;2023-11-22T16:13:16;21.30;53.70
6540;DHT22;50344;51.142;16.892;2023-11-22T16:15:42;21.30;54.00
6540;DHT22;50344;51.142;16.892;2023-11-22T16:18:08;21.80;54.40